20 Jun 2018 07:35 UTC 2018171+07:35 UTC

Overview Datums Bench Marks Data Query Site Visit Daily QC Messages Attributes

130: GBRA Station #2

28° 24' 26" N   96° 42' 43" W
GBRA2
Guadalupe Blanco River Authority (GBRA) GBRA

Station Information

GBRA Station #2
GBRA Station #2
more pictures
 
Station Name:GBRA Station #2
DNR ID:130
Location:28° 24' 26" N, 96° 42' 43" W

Water Level Forecasts

Latest Observations

Series Metric English Marine Observed at
Water Temperature 27.6 °C 81.7 °F 81.7 °F Jun 20 02:24 CDT
00h07m ago
Salinity 12.100 psu 12.100 psu 12.100 psu Jun 20 02:24 CDT
00h07m ago

Maps

GBRA Station #2
All Stations in Area
Entire Network
 

Recent Observations

Date/Time Water
Temp (°F)
Sal (psu)
Jun 20 02:00 CDT 81.9 12.100
Jun 20 01:00 CDT 82.0 12.100
Jun 20 00:00 CDT 82.2 12.100
Jun 19 23:00 CDT 82.4 12.100
Jun 19 22:00 CDT 82.8 12.000
Jun 19 21:00 CDT 82.9 11.800
Jun 19 20:00 CDT 83.5 12.000
Jun 19 19:00 CDT 83.7 11.900
Jun 19 18:00 CDT 83.7 11.900
Jun 19 17:00 CDT 83.5 11.900
Jun 19 16:00 CDT 83.3 11.700
Jun 19 15:00 CDT 83.1 11.900
Jun 19 14:00 CDT 82.4 12.000
Jun 19 13:00 CDT 82.2 11.900
Jun 19 12:00 CDT 82.0 11.800
Jun 19 11:00 CDT 81.9 11.800
Jun 19 10:00 CDT 81.7 11.800
Jun 19 09:00 CDT 81.9 11.900
Jun 19 08:00 CDT 81.9 11.800
Jun 19 07:00 CDT 82.0 12.000
Jun 19 06:00 CDT 82.2 11.900
Jun 19 05:00 CDT 82.4 11.900
Jun 19 04:00 CDT 82.6 12.000
Jun 19 03:00 CDT 82.8 11.900
Jun 19 02:00 CDT 82.9 12.100

Historical Data Availability